createdAt,value
2023-05-20T00:01:10.591Z,101564.38
2023-05-20T00:03:39.140Z,101564.73
2023-05-20T00:06:07.861Z,101564.07
2023-05-20T00:08:36.349Z,101567.27
2023-05-20T00:11:04.615Z,101565.59
2023-05-20T00:13:33.092Z,101562.48
2023-05-20T00:16:01.495Z,101564.23
2023-05-20T00:18:29.974Z,101560.88
2023-05-20T00:20:59.145Z,101563.31
2023-05-20T00:23:27.317Z,101562.06
2023-05-20T00:25:56.281Z,101557.17
2023-05-20T00:28:25.707Z,101556.16
2023-05-20T00:30:54.987Z,101556.54
2023-05-20T00:33:23.278Z,101553.16
2023-05-20T00:35:51.562Z,101549.48
2023-05-20T00:38:20.041Z,101548.02
2023-05-20T00:40:48.521Z,101551.35
2023-05-20T00:43:16.699Z,101551.52
2023-05-20T00:45:44.996Z,101545.95
2023-05-20T00:48:13.768Z,101548.06
2023-05-20T00:50:42.124Z,101544.71
2023-05-20T00:53:10.616Z,101543.86
2023-05-20T00:55:38.820Z,101547.34
2023-05-20T00:58:07.050Z,101546.81
2023-05-20T01:00:35.941Z,101547.02
2023-05-20T01:03:04.330Z,101550.59
2023-05-20T01:05:32.878Z,101552.36
2023-05-20T01:08:01.691Z,101550.98
2023-05-20T01:10:30.878Z,101552.57
2023-05-20T01:13:02.962Z,101553.96
2023-05-20T01:15:31.937Z,101556.44
2023-05-20T01:18:02.724Z,101553.64
2023-05-20T01:20:32.801Z,101549.23
2023-05-20T01:23:01.689Z,101547.90
2023-05-20T01:25:30.149Z,101546.01
2023-05-20T01:27:58.428Z,101544.80
2023-05-20T01:30:31.230Z,101543.23
2023-05-20T01:33:03.041Z,101542.89
2023-05-20T01:35:32.374Z,101544.30
2023-05-20T01:38:01.775Z,101544.65
2023-05-20T01:40:31.063Z,101542.72
2023-05-20T01:42:59.550Z,101542.38
2023-05-20T01:45:27.815Z,101543.27
2023-05-20T01:47:56.242Z,101545.17
2023-05-20T01:50:24.687Z,101546.72
2023-05-20T01:52:52.966Z,101546.20
2023-05-20T01:55:21.227Z,101544.67
2023-05-20T01:57:49.601Z,101548.73
2023-05-20T02:00:17.874Z,101547.35
2023-05-20T02:02:46.246Z,101545.20
2023-05-20T02:05:14.937Z,101548.15
2023-05-20T02:07:44.748Z,101545.14
2023-05-20T02:10:14.048Z,101550.55
2023-05-20T02:12:43.044Z,101550.71
2023-05-20T02:15:11.417Z,101551.23
2023-05-20T02:17:40.013Z,101553.66
2023-05-20T02:20:08.919Z,101549.16
2023-05-20T02:22:37.168Z,101549.02
2023-05-20T02:25:06.169Z,101550.92
2023-05-20T02:27:34.444Z,101547.90
2023-05-20T02:30:02.820Z,101551.41
2023-05-20T02:32:31.184Z,101548.85
2023-05-20T02:35:00.997Z,101546.81
2023-05-20T02:37:29.881Z,101543.66
2023-05-20T02:39:58.266Z,101545.77
2023-05-20T02:42:26.641Z,101548.44
2023-05-20T02:44:58.711Z,101547.05
2023-05-20T02:47:27.633Z,101550.58
2023-05-20T02:49:56.173Z,101550.77
2023-05-20T02:52:24.347Z,101551.45
2023-05-20T02:54:53.239Z,101552.15
2023-05-20T02:57:21.615Z,101553.05
2023-05-20T02:59:50.013Z,101554.29
2023-05-20T03:02:18.463Z,101557.60
2023-05-20T03:04:47.645Z,101554.23
2023-05-20T03:07:19.888Z,101552.98
2023-05-20T03:09:48.418Z,101554.34
2023-05-20T03:12:16.800Z,101554.67
2023-05-20T03:14:45.778Z,101559.04
2023-05-20T03:17:14.887Z,101561.30
2023-05-20T03:19:44.378Z,101554.97
2023-05-20T03:22:12.960Z,101556.55
2023-05-20T03:24:42.666Z,101557.60
2023-05-20T03:27:10.842Z,101556.19
2023-05-20T03:29:39.521Z,101552.90
2023-05-20T03:32:10.649Z,101554.79
2023-05-20T03:34:39.608Z,101558.80
2023-05-20T03:37:08.440Z,101566.35
2023-05-20T03:39:36.932Z,101566.34
2023-05-20T03:42:05.818Z,101566.66
2023-05-20T03:44:34.600Z,101565.92
2023-05-20T03:47:04.052Z,101562.57
2023-05-20T03:49:32.676Z,101559.27
2023-05-20T03:52:00.953Z,101564.83
2023-05-20T03:54:30.358Z,101564.59
2023-05-20T03:57:01.298Z,101565.59
2023-05-20T03:59:29.873Z,101564.32
2023-05-20T04:01:58.159Z,101563.49
2023-05-20T04:04:26.635Z,101560.17
2023-05-20T04:06:54.898Z,101560.34
2023-05-20T04:09:23.588Z,101565.25
2023-05-20T04:11:51.763Z,101568.98
2023-05-20T04:14:20.033Z,101570.06
2023-05-20T04:16:50.445Z,101568.13
2023-05-20T04:19:22.019Z,101569.30
2023-05-20T04:21:50.798Z,101569.23
2023-05-20T04:24:19.179Z,101571.36
2023-05-20T04:26:48.495Z,101570.08
2023-05-20T04:29:16.854Z,101566.54
2023-05-20T04:31:48.089Z,101563.19
2023-05-20T04:34:19.852Z,101567.31
2023-05-20T04:36:49.264Z,101569.40
2023-05-20T04:39:19.369Z,101570.11
2023-05-20T04:41:49.591Z,101566.39
2023-05-20T04:44:18.174Z,101569.52
2023-05-20T04:46:46.447Z,101569.80
2023-05-20T04:49:16.154Z,101571.46
2023-05-20T04:51:45.148Z,101568.60
2023-05-20T04:54:14.137Z,101572.60
2023-05-20T04:56:42.309Z,101574.48
2023-05-20T04:59:10.891Z,101572.40
2023-05-20T05:01:39.208Z,101571.00
2023-05-20T05:04:07.896Z,101571.90
2023-05-20T05:06:37.149Z,101575.23
2023-05-20T05:09:05.833Z,101579.09
2023-05-20T05:11:34.315Z,101578.84
2023-05-20T05:14:02.591Z,101576.81
2023-05-20T05:16:31.614Z,101574.63
2023-05-20T05:19:00.113Z,101577.25
2023-05-20T05:21:29.562Z,101578.98
2023-05-20T05:23:58.543Z,101583.71
2023-05-20T05:26:26.937Z,101583.83
2023-05-20T05:28:55.924Z,101587.80
2023-05-20T05:31:24.199Z,101585.55
2023-05-20T05:33:52.480Z,101580.72
2023-05-20T05:36:20.855Z,101578.50
2023-05-20T05:38:49.128Z,101574.96
2023-05-20T05:41:17.296Z,101579.09
2023-05-20T05:43:46.089Z,101579.16
2023-05-20T05:46:14.898Z,101581.68
2023-05-20T05:48:45.498Z,101582.05
2023-05-20T05:51:13.670Z,101578.45
2023-05-20T05:53:42.557Z,101573.83
2023-05-20T05:56:11.348Z,101573.27
2023-05-20T05:58:39.828Z,101566.06
2023-05-20T06:01:08.414Z,101564.11
2023-05-20T06:03:36.853Z,101565.82
2023-05-20T06:06:05.366Z,101568.50
2023-05-20T06:08:34.972Z,101563.48
2023-05-20T06:11:03.244Z,101564.23
2023-05-20T06:13:32.447Z,101563.01
2023-05-20T06:16:00.833Z,101559.22
2023-05-20T06:18:29.095Z,101557.77
2023-05-20T06:21:03.520Z,101560.17
2023-05-20T06:23:31.996Z,101564.88
2023-05-20T06:26:03.764Z,101564.44
2023-05-20T06:28:32.125Z,101559.06
2023-05-20T06:31:00.825Z,101558.79
2023-05-20T06:33:32.564Z,101560.89
2023-05-20T06:36:04.425Z,101558.46
2023-05-20T06:38:32.802Z,101562.95
2023-05-20T06:41:01.497Z,101559.61
2023-05-20T06:43:30.479Z,101556.91
2023-05-20T06:46:07.175Z,101555.30
2023-05-20T06:48:38.808Z,101560.80
2023-05-20T06:51:11.610Z,101563.59
2023-05-20T06:53:40.492Z,101567.27
2023-05-20T06:56:08.954Z,101564.79
2023-05-20T06:58:37.226Z,101564.13
2023-05-20T07:01:06.020Z,101567.59
2023-05-20T07:03:34.718Z,101566.38
2023-05-20T07:06:03.488Z,101564.95
2023-05-20T07:08:32.474Z,101567.39
2023-05-20T07:11:00.962Z,101570.90
2023-05-20T07:13:31.378Z,101564.54
2023-05-20T07:16:00.220Z,101564.37
2023-05-20T07:18:29.054Z,101560.89
2023-05-20T07:20:58.458Z,101564.13
2023-05-20T07:23:49.770Z,101565.77
2023-05-20T07:26:18.657Z,101565.54
2023-05-20T07:28:47.443Z,101563.77
2023-05-20T07:31:17.311Z,101559.60
2023-05-20T07:33:46.348Z,101556.76
2023-05-20T07:36:15.247Z,101554.48
2023-05-20T07:39:00.934Z,101555.42
2023-05-20T07:41:32.268Z,101556.23
2023-05-20T07:44:03.545Z,101555.79
2023-05-20T07:46:33.135Z,101554.17
2023-05-20T07:49:01.598Z,101553.20
2023-05-20T07:51:30.078Z,101550.86
2023-05-20T07:53:59.176Z,101550.36
2023-05-20T07:56:28.573Z,101550.62
2023-05-20T07:58:58.801Z,101549.27
2023-05-20T08:01:30.553Z,101551.46
2023-05-20T08:03:59.042Z,101546.50
2023-05-20T08:06:29.552Z,101541.85
2023-05-20T08:08:59.217Z,101543.44
2023-05-20T08:11:31.531Z,101539.86
2023-05-20T08:14:00.935Z,101537.01
2023-05-20T08:16:31.299Z,101531.92
2023-05-20T08:18:59.801Z,101528.25
2023-05-20T08:21:28.930Z,101527.71
2023-05-20T08:23:57.203Z,101525.14
2023-05-20T08:26:25.582Z,101524.36
2023-05-20T08:28:53.961Z,101527.12
2023-05-20T08:31:22.680Z,101525.87
2023-05-20T08:33:51.941Z,101530.40
2023-05-20T08:36:20.118Z,101524.91
2023-05-20T08:38:49.219Z,101528.05
2023-05-20T08:41:18.097Z,101527.17
2023-05-20T08:43:47.719Z,101529.58
2023-05-20T08:46:18.170Z,101529.42
2023-05-20T08:48:47.126Z,101529.35
2023-05-20T08:51:16.828Z,101528.41
2023-05-20T08:53:45.002Z,101532.21
2023-05-20T08:56:13.589Z,101535.13
2023-05-20T08:58:43.400Z,101534.83
2023-05-20T09:01:11.671Z,101531.31
2023-05-20T09:03:39.840Z,101531.53
2023-05-20T09:06:09.551Z,101527.60
2023-05-20T09:08:37.927Z,101524.86
2023-05-20T09:11:06.612Z,101517.31
2023-05-20T09:13:34.821Z,101517.86
2023-05-20T09:16:03.656Z,101526.45
2023-05-20T09:18:32.359Z,101524.14
2023-05-20T09:21:06.579Z,101523.40
2023-05-20T09:23:38.274Z,101525.17
2023-05-20T09:26:07.117Z,101528.65
2023-05-20T09:28:38.554Z,101527.38
2023-05-20T09:31:07.655Z,101528.39
2023-05-20T09:33:37.364Z,101522.77
2023-05-20T09:36:08.772Z,101521.71
2023-05-20T09:38:39.906Z,101518.61
2023-05-20T09:41:11.786Z,101513.91
2023-05-20T09:43:41.107Z,101509.17
2023-05-20T09:46:09.557Z,101506.91
2023-05-20T09:48:38.293Z,101504.20
2023-05-20T09:51:08.192Z,101502.59
2023-05-20T09:53:37.083Z,101501.09
2023-05-20T09:56:06.177Z,101494.51
2023-05-20T09:58:36.402Z,101489.32
2023-05-20T10:01:07.279Z,101481.29
2023-05-20T10:03:36.302Z,101478.11
2023-05-20T10:06:10.636Z,101475.69
2023-05-20T10:08:57.018Z,101472.95
2023-05-20T10:11:39.035Z,101472.69
2023-05-20T10:14:09.970Z,101468.38
2023-05-20T10:16:52.229Z,101463.55
2023-05-20T10:19:33.613Z,101459.86
2023-05-20T10:22:06.544Z,101469.33
2023-05-20T10:24:41.875Z,101472.31
2023-05-20T10:27:12.970Z,101478.14
2023-05-20T10:29:53.083Z,101482.05
2023-05-20T10:32:28.814Z,101481.30
2023-05-20T10:35:05.519Z,101480.90
2023-05-20T10:37:42.154Z,101483.88
2023-05-20T10:40:14.454Z,101488.37
2023-05-20T10:42:43.478Z,101487.51
2023-05-20T10:45:12.516Z,101480.42
2023-05-20T10:47:56.472Z,101470.65
2023-05-20T10:50:43.062Z,101461.60
2023-05-20T10:53:25.635Z,101464.15
2023-05-20T10:56:01.367Z,101462.90
2023-05-20T10:58:37.656Z,101451.64
2023-05-20T11:01:05.978Z,101448.00
2023-05-20T11:03:35.886Z,101445.05
2023-05-20T11:06:12.439Z,101442.55
2023-05-20T11:08:41.023Z,101442.45
2023-05-20T11:11:10.751Z,101437.17
2023-05-20T11:13:39.111Z,101431.18
2023-05-20T11:16:07.591Z,101429.24
2023-05-20T11:18:36.695Z,101429.29
2023-05-20T11:21:04.974Z,101426.04
2023-05-20T11:23:33.876Z,101428.86
2023-05-20T11:26:02.747Z,101430.79
2023-05-20T11:28:33.321Z,101431.89
2023-05-20T11:31:01.856Z,101425.27
2023-05-20T11:33:30.844Z,101415.35
2023-05-20T11:35:59.320Z,101409.59
2023-05-20T11:38:28.208Z,101412.33
2023-05-20T11:40:56.908Z,101409.27
2023-05-20T11:43:25.587Z,101409.61
2023-05-20T11:45:56.433Z,101406.04
2023-05-20T11:48:24.991Z,101407.30
2023-05-20T11:50:56.754Z,101408.80
2023-05-20T11:53:25.472Z,101405.21
2023-05-20T11:55:56.109Z,101405.70
2023-05-20T11:58:29.586Z,101402.07
2023-05-20T12:01:05.640Z,101400.00
2023-05-20T12:03:37.914Z,101397.55
2023-05-20T12:06:06.673Z,101396.30
2023-05-20T12:08:34.837Z,101391.99
2023-05-20T12:11:03.113Z,101390.79
2023-05-20T12:13:32.170Z,101385.67
2023-05-20T12:16:02.035Z,101384.33
2023-05-20T12:18:30.295Z,101383.14
2023-05-20T12:21:01.435Z,101377.77
2023-05-20T12:23:34.282Z,101375.09
2023-05-20T12:26:02.808Z,101374.02
2023-05-20T12:28:32.410Z,101371.17
2023-05-20T12:31:01.207Z,101366.08
2023-05-20T12:33:29.576Z,101361.42
2023-05-20T12:35:58.153Z,101360.83
2023-05-20T12:38:26.424Z,101356.73
2023-05-20T12:40:54.696Z,101357.41
2023-05-20T12:43:22.976Z,101358.24
2023-05-20T12:45:52.592Z,101353.51
2023-05-20T12:48:20.750Z,101352.16
2023-05-20T12:50:49.128Z,101347.98
2023-05-20T12:53:17.403Z,101343.59
2023-05-20T12:55:45.677Z,101342.48
2023-05-20T12:58:14.056Z,101333.73
2023-05-20T13:00:42.476Z,101331.95
2023-05-20T13:03:11.620Z,101324.58
2023-05-20T13:05:40.003Z,101320.95
2023-05-20T13:08:10.325Z,101319.86
2023-05-20T13:10:38.919Z,101317.39
2023-05-20T13:13:07.188Z,101313.65
2023-05-20T13:15:35.867Z,101309.89
2023-05-20T13:18:06.907Z,101302.15
2023-05-20T13:20:35.638Z,101299.64
2023-05-20T13:23:04.186Z,101299.61
2023-05-20T13:25:32.448Z,101292.07
2023-05-20T13:28:01.133Z,101289.32
2023-05-20T13:30:29.924Z,101287.98
2023-05-20T13:32:58.329Z,101286.32
2023-05-20T13:35:26.576Z,101288.46
2023-05-20T13:37:54.740Z,101295.64
2023-05-20T13:40:23.035Z,101293.19
2023-05-20T13:42:51.240Z,101298.86
2023-05-20T13:45:19.571Z,101299.66
2023-05-20T13:47:47.795Z,101298.14
2023-05-20T13:50:16.859Z,101305.29
2023-05-20T13:52:45.112Z,101301.95
2023-05-20T13:55:13.484Z,101299.67
2023-05-20T13:57:42.579Z,101299.17
2023-05-20T14:00:11.314Z,101296.59
2023-05-20T14:02:39.622Z,101290.80
2023-05-20T14:05:08.422Z,101286.42
2023-05-20T14:07:36.805Z,101279.83
2023-05-20T14:10:06.675Z,101279.48
2023-05-20T14:12:34.883Z,101274.48
2023-05-20T14:15:03.165Z,101274.86
2023-05-20T14:17:31.478Z,101272.79
2023-05-20T14:20:00.834Z,101271.35
2023-05-20T14:22:29.111Z,101274.69
2023-05-20T14:24:57.288Z,101269.40
2023-05-20T14:27:25.871Z,101262.48
2023-05-20T14:29:54.139Z,101257.40
2023-05-20T14:32:22.466Z,101260.59
2023-05-20T14:34:52.550Z,101256.23
2023-05-20T14:37:20.705Z,101248.23
2023-05-20T14:39:49.081Z,101241.79
2023-05-20T14:42:17.263Z,101247.25
2023-05-20T14:44:46.196Z,101249.12
2023-05-20T14:47:19.332Z,101242.04
2023-05-20T14:49:47.855Z,101240.14
2023-05-20T14:52:17.639Z,101235.00
2023-05-20T14:54:46.330Z,101235.88
2023-05-20T14:57:16.169Z,101236.45
2023-05-20T14:59:44.596Z,101238.13
2023-05-20T15:02:15.452Z,101236.58
2023-05-20T15:04:46.782Z,101232.80
2023-05-20T15:07:15.770Z,101228.60
2023-05-20T15:09:44.253Z,101229.09
2023-05-20T15:12:12.528Z,101228.86
2023-05-20T15:14:41.012Z,101226.08
2023-05-20T15:17:09.401Z,101225.46
2023-05-20T15:19:41.429Z,101226.31
2023-05-20T15:22:09.956Z,101223.39
2023-05-20T15:24:38.201Z,101221.70
2023-05-20T15:27:06.678Z,101217.26
2023-05-20T15:29:34.952Z,101213.84
2023-05-20T15:32:03.442Z,101206.31
2023-05-20T15:34:31.914Z,101205.23
2023-05-20T15:37:00.200Z,101207.02
2023-05-20T15:39:28.669Z,101201.03
2023-05-20T15:41:59.616Z,101208.54
2023-05-20T15:44:29.315Z,101207.62
2023-05-20T15:46:57.490Z,101202.00
2023-05-20T15:49:25.862Z,101201.48
2023-05-20T15:52:02.822Z,101201.81
2023-05-20T15:54:33.176Z,101195.48
2023-05-20T15:57:02.818Z,101198.29
2023-05-20T15:59:31.250Z,101197.59
2023-05-20T16:01:59.483Z,101197.33
2023-05-20T16:04:28.024Z,101197.27
2023-05-20T16:06:56.897Z,101197.84
2023-05-20T16:09:25.179Z,101195.40
2023-05-20T16:11:53.651Z,101191.16
2023-05-20T16:14:21.922Z,101188.61
2023-05-20T16:16:50.327Z,101189.29
2023-05-20T16:19:18.728Z,101186.91
2023-05-20T16:21:47.058Z,101187.58
2023-05-20T16:24:16.404Z,101184.17
2023-05-20T16:26:44.735Z,101185.54
2023-05-20T16:29:14.345Z,101190.14
2023-05-20T16:31:46.960Z,101192.16
2023-05-20T16:34:16.721Z,101190.86
2023-05-20T16:36:45.828Z,101187.79
2023-05-20T16:39:15.057Z,101195.95
2023-05-20T16:41:44.101Z,101192.91
2023-05-20T16:44:12.395Z,101193.16
2023-05-20T16:46:40.874Z,101186.61
2023-05-20T16:49:09.135Z,101189.08
2023-05-20T16:51:37.512Z,101190.38
2023-05-20T16:54:06.092Z,101187.17
2023-05-20T16:56:35.597Z,101184.64
2023-05-20T16:59:03.769Z,101182.40
2023-05-20T17:01:32.197Z,101178.68
2023-05-20T17:04:00.738Z,101178.60
2023-05-20T17:06:29.102Z,101183.92
2023-05-20T17:08:57.785Z,101189.98
2023-05-20T17:11:26.367Z,101184.64
2023-05-20T17:13:54.658Z,101186.34
2023-05-20T17:16:23.059Z,101183.11
2023-05-20T17:18:51.519Z,101183.91
2023-05-20T17:21:23.066Z,101181.14
2023-05-20T17:23:51.450Z,101180.79
2023-05-20T17:26:19.913Z,101177.83
2023-05-20T17:28:48.180Z,101175.91
2023-05-20T17:31:16.776Z,101174.91
2023-05-20T17:33:45.060Z,101174.45
2023-05-20T17:36:14.242Z,101172.45
2023-05-20T17:38:42.415Z,101177.96
2023-05-20T17:41:10.783Z,101176.52
2023-05-20T17:43:39.059Z,101176.83
2023-05-20T17:46:07.497Z,101178.48
2023-05-20T17:48:37.042Z,101176.67
2023-05-20T17:51:05.933Z,101173.09
2023-05-20T17:53:34.204Z,101168.85
2023-05-20T17:56:02.375Z,101167.41
2023-05-20T17:58:31.786Z,101162.05
2023-05-20T18:01:00.285Z,101165.08
2023-05-20T18:03:29.474Z,101165.15
2023-05-20T18:05:57.830Z,101161.85
2023-05-20T18:08:26.417Z,101161.41
2023-05-20T18:10:54.697Z,101165.42
2023-05-20T18:13:23.272Z,101159.60
2023-05-20T18:15:52.868Z,101158.34
2023-05-20T18:18:21.256Z,101155.88
2023-05-20T18:20:49.425Z,101156.23
2023-05-20T18:23:17.713Z,101154.35
2023-05-20T18:25:46.490Z,101152.89
2023-05-20T18:28:14.878Z,101151.52
2023-05-20T18:30:43.140Z,101152.75
2023-05-20T18:33:11.551Z,101156.13
2023-05-20T18:35:39.904Z,101158.19
2023-05-20T18:38:08.171Z,101155.75
2023-05-20T18:40:37.048Z,101152.23
2023-05-20T18:43:05.636Z,101151.19
2023-05-20T18:45:34.026Z,101152.68
2023-05-20T18:48:02.430Z,101150.23
2023-05-20T18:50:31.126Z,101152.16
2023-05-20T18:52:59.358Z,101152.53
2023-05-20T18:55:28.452Z,101152.11
2023-05-20T18:57:56.821Z,101153.79
2023-05-20T19:00:25.510Z,101150.52
2023-05-20T19:02:53.889Z,101144.29
2023-05-20T19:05:23.335Z,101145.85
2023-05-20T19:07:51.666Z,101141.14
2023-05-20T19:10:19.875Z,101147.02
2023-05-20T19:12:48.109Z,101141.34
2023-05-20T19:15:16.996Z,101141.98
2023-05-20T19:17:45.178Z,101144.12
2023-05-20T19:20:14.572Z,101145.56
2023-05-20T19:22:42.841Z,101147.13
2023-05-20T19:25:11.737Z,101143.15
2023-05-20T19:27:40.004Z,101142.05
2023-05-20T19:30:10.894Z,101138.86
2023-05-20T19:32:39.890Z,101141.05
2023-05-20T19:35:08.823Z,101139.64
2023-05-20T19:37:36.993Z,101139.52
2023-05-20T19:40:06.822Z,101141.41
2023-05-20T19:42:35.182Z,101135.76
2023-05-20T19:45:03.866Z,101135.79
2023-05-20T19:47:32.202Z,101133.23
2023-05-20T19:50:00.517Z,101139.50
2023-05-20T19:52:28.902Z,101142.38
2023-05-20T19:54:57.178Z,101145.09
2023-05-20T19:57:26.170Z,101139.89
2023-05-20T19:59:54.444Z,101145.39
2023-05-20T20:02:22.749Z,101145.08
2023-05-20T20:04:52.122Z,101145.52
2023-05-20T20:07:20.898Z,101140.91
2023-05-20T20:09:51.835Z,101143.15
2023-05-20T20:12:20.110Z,101143.95
2023-05-20T20:14:48.408Z,101146.98
2023-05-20T20:17:17.714Z,101145.27
2023-05-20T20:19:48.830Z,101144.88
2023-05-20T20:22:17.520Z,101139.36
2023-05-20T20:24:45.696Z,101143.27
2023-05-20T20:27:13.957Z,101143.70
2023-05-20T20:29:42.339Z,101144.40
2023-05-20T20:32:11.272Z,101145.45
2023-05-20T20:34:39.600Z,101147.20
2023-05-20T20:37:07.778Z,101145.36
2023-05-20T20:39:37.392Z,101145.98
2023-05-20T20:42:06.889Z,101146.47
2023-05-20T20:44:35.165Z,101147.66
2023-05-20T20:47:04.705Z,101146.37
2023-05-20T20:49:33.654Z,101150.35
2023-05-20T20:52:02.247Z,101147.27
2023-05-20T20:54:30.511Z,101151.95
2023-05-20T20:57:00.319Z,101145.02
2023-05-20T20:59:29.114Z,101139.55
2023-05-20T21:01:58.424Z,101139.20
2023-05-20T21:04:28.102Z,101139.81
2023-05-20T21:06:56.592Z,101131.64
2023-05-20T21:09:24.798Z,101129.30
2023-05-20T21:11:52.938Z,101129.19
2023-05-20T21:14:21.109Z,101125.03
2023-05-20T21:16:49.354Z,101121.09
2023-05-20T21:19:17.701Z,101121.13
2023-05-20T21:21:46.043Z,101119.23
2023-05-20T21:24:14.328Z,101119.48
2023-05-20T21:26:42.486Z,101114.95
2023-05-20T21:29:12.292Z,101113.04
2023-05-20T21:31:40.584Z,101115.41
2023-05-20T21:34:08.946Z,101116.77
2023-05-20T21:36:37.440Z,101112.17
2023-05-20T21:39:05.805Z,101117.72
2023-05-20T21:41:33.974Z,101115.93
2023-05-20T21:44:02.154Z,101113.71
2023-05-20T21:46:30.651Z,101110.80
2023-05-20T21:48:58.908Z,101112.28
2023-05-20T21:51:27.198Z,101113.02
2023-05-20T21:53:55.351Z,101112.64
2023-05-20T21:56:23.827Z,101114.58
2023-05-20T21:58:51.999Z,101121.84
2023-05-20T22:01:20.209Z,101118.70
2023-05-20T22:03:51.285Z,101120.74
2023-05-20T22:06:21.568Z,101120.11
2023-05-20T22:08:49.911Z,101120.05
2023-05-20T22:11:19.967Z,101120.83
2023-05-20T22:13:48.304Z,101120.47
2023-05-20T22:16:16.944Z,101115.86
2023-05-20T22:18:48.092Z,101113.52
2023-05-20T22:21:16.817Z,101115.34
2023-05-20T22:23:44.991Z,101118.86
2023-05-20T22:26:13.266Z,101116.21
2023-05-20T22:28:41.637Z,101110.99
2023-05-20T22:31:09.963Z,101105.74
2023-05-20T22:33:41.615Z,101107.83
2023-05-20T22:36:10.055Z,101108.90
2023-05-20T22:38:38.319Z,101104.64
2023-05-20T22:41:06.504Z,101109.90
2023-05-20T22:43:36.003Z,101105.93
2023-05-20T22:46:04.230Z,101106.48
2023-05-20T22:48:32.442Z,101100.89
2023-05-20T22:51:01.561Z,101099.11
2023-05-20T22:53:30.032Z,101097.70
2023-05-20T22:56:00.195Z,101096.42
2023-05-20T22:58:29.953Z,101092.86
2023-05-20T23:00:59.850Z,101089.98
2023-05-20T23:03:28.852Z,101083.83
2023-05-20T23:05:57.127Z,101082.54
2023-05-20T23:08:25.408Z,101084.83
2023-05-20T23:10:53.571Z,101083.09
2023-05-20T23:13:21.846Z,101081.02
2023-05-20T23:15:50.427Z,101080.88
2023-05-20T23:18:18.916Z,101072.61
2023-05-20T23:20:47.896Z,101071.95
2023-05-20T23:23:16.567Z,101067.85
2023-05-20T23:25:46.327Z,101063.39
2023-05-20T23:28:14.675Z,101063.42
2023-05-20T23:30:42.948Z,101063.44
2023-05-20T23:33:11.315Z,101063.94
2023-05-20T23:35:39.601Z,101062.42
2023-05-20T23:38:07.968Z,101068.73
2023-05-20T23:40:36.461Z,101067.00
2023-05-20T23:43:04.829Z,101059.36
2023-05-20T23:45:33.138Z,101065.00
2023-05-20T23:48:01.950Z,101065.96
2023-05-20T23:50:30.269Z,101064.64
2023-05-20T23:52:59.972Z,101063.77
2023-05-20T23:55:32.036Z,101059.64
2023-05-20T23:58:00.311Z,101057.19
